sensor_id;sensor_type;location;lat;lon;timestamp;temperature;humidity
9383;DHT22;4731;49.708;10.816;2023-04-08T00:01:29;4.40;99.90
9383;DHT22;4731;49.708;10.816;2023-04-08T00:03:56;4.40;99.90
9383;DHT22;4731;49.708;10.816;2023-04-08T00:06:22;4.30;99.90
9383;DHT22;4731;49.708;10.816;2023-04-08T00:08:50;4.30;99.90
9383;DHT22;4731;49.708;10.816;2023-04-08T00:11:17;4.20;99.90
9383;DHT22;4731;49.708;10.816;2023-04-08T00:13:44;4.20;99.90
9383;DHT22;4731;49.708;10.816;2023-04-08T00:16:10;4.20;99.90
9383;DHT22;4731;49.708;10.816;2023-04-08T00:18:37;4.10;99.90
9383;DHT22;4731;49.708;10.816;2023-04-08T00:21:04;4.10;99.90
9383;DHT22;4731;49.708;10.816;2023-04-08T00:23:30;4.00;99.90
9383;DHT22;4731;49.708;10.816;2023-04-08T00:25:58;3.90;99.90
9383;DHT22;4731;49.708;10.816;2023-04-08T00:28:25;3.90;99.90
9383;DHT22;4731;49.708;10.816;2023-04-08T00:30:52;3.80;99.90
9383;DHT22;4731;49.708;10.816;2023-04-08T00:33:19;3.70;99.90
9383;DHT22;4731;49.708;10.816;2023-04-08T00:35:46;3.60;99.90
9383;DHT22;4731;49.708;10.816;2023-04-08T00:38:13;3.60;99.90
9383;DHT22;4731;49.708;10.816;2023-04-08T00:40:40;3.60;99.90
9383;DHT22;4731;49.708;10.816;2023-04-08T00:43:08;3.60;99.90
9383;DHT22;4731;49.708;10.816;2023-04-08T00:45:35;3.50;99.90
9383;DHT22;4731;49.708;10.816;2023-04-08T00:48:02;3.50;99.90
9383;DHT22;4731;49.708;10.816;2023-04-08T00:50:29;5.30;99.90
9383;DHT22;4731;49.708;10.816;2023-04-08T00:52:55;3.40;99.90
9383;DHT22;4731;49.708;10.816;2023-04-08T00:55:23;3.50;99.90
9383;DHT22;4731;49.708;10.816;2023-04-08T00:57:49;3.60;99.90
9383;DHT22;4731;49.708;10.816;2023-04-08T01:00:18;3.70;99.90
9383;DHT22;4731;49.708;10.816;2023-04-08T01:02:49;3.70;99.90
9383;DHT22;4731;49.708;10.816;2023-04-08T01:05:22;3.80;99.90
9383;DHT22;4731;49.708;10.816;2023-04-08T01:07:51;3.80;99.90
9383;DHT22;4731;49.708;10.816;2023-04-08T01:10:21;3.80;99.90
9383;DHT22;4731;49.708;10.816;2023-04-08T01:12:52;3.80;99.90
9383;DHT22;4731;49.708;10.816;2023-04-08T01:15:21;3.90;99.90
9383;DHT22;4731;49.708;10.816;2023-04-08T01:17:52;3.80;99.90
9383;DHT22;4731;49.708;10.816;2023-04-08T01:20:19;3.80;99.90
9383;DHT22;4731;49.708;10.816;2023-04-08T01:22:57;3.80;99.90
9383;DHT22;4731;49.708;10.816;2023-04-08T01:25:30;3.70;99.90
9383;DHT22;4731;49.708;10.816;2023-04-08T01:27:59;3.70;99.90
9383;DHT22;4731;49.708;10.816;2023-04-08T01:30:27;3.70;99.90
9383;DHT22;4731;49.708;10.816;2023-04-08T01:32:56;3.70;99.90
9383;DHT22;4731;49.708;10.816;2023-04-08T01:35:23;3.60;99.90
9383;DHT22;4731;49.708;10.816;2023-04-08T01:37:50;3.60;99.90
9383;DHT22;4731;49.708;10.816;2023-04-08T01:40:18;3.50;99.90
9383;DHT22;4731;49.708;10.816;2023-04-08T01:42:47;3.50;99.90
9383;DHT22;4731;49.708;10.816;2023-04-08T01:45:16;3.50;99.90
9383;DHT22;4731;49.708;10.816;2023-04-08T01:47:44;3.40;99.90
9383;DHT22;4731;49.708;10.816;2023-04-08T01:50:12;3.40;99.90
9383;DHT22;4731;49.708;10.816;2023-04-08T01:52:40;3.40;99.90
9383;DHT22;4731;49.708;10.816;2023-04-08T01:55:09;3.40;99.90
9383;DHT22;4731;49.708;10.816;2023-04-08T01:57:37;3.50;99.90
9383;DHT22;4731;49.708;10.816;2023-04-08T02:00:07;3.50;99.90
9383;DHT22;4731;49.708;10.816;2023-04-08T02:02:37;3.60;99.90
9383;DHT22;4731;49.708;10.816;2023-04-08T02:05:04;3.70;99.90
9383;DHT22;4731;49.708;10.816;2023-04-08T02:07:31;3.70;99.90
9383;DHT22;4731;49.708;10.816;2023-04-08T02:09:58;3.90;99.90
9383;DHT22;4731;49.708;10.816;2023-04-08T02:12:25;4.00;99.90
9383;DHT22;4731;49.708;10.816;2023-04-08T02:14:53;4.00;99.90
9383;DHT22;4731;49.708;10.816;2023-04-08T02:17:24;4.00;99.90
9383;DHT22;4731;49.708;10.816;2023-04-08T02:19:58;4.00;99.90
9383;DHT22;4731;49.708;10.816;2023-04-08T02:22:30;4.00;99.90
9383;DHT22;4731;49.708;10.816;2023-04-08T02:25:03;4.00;99.90
9383;DHT22;4731;49.708;10.816;2023-04-08T02:27:35;4.00;99.90
9383;DHT22;4731;49.708;10.816;2023-04-08T02:30:03;4.00;99.90
9383;DHT22;4731;49.708;10.816;2023-04-08T02:32:32;4.10;99.90
9383;DHT22;4731;49.708;10.816;2023-04-08T02:35:05;4.10;99.90
9383;DHT22;4731;49.708;10.816;2023-04-08T02:37:32;4.10;99.90
9383;DHT22;4731;49.708;10.816;2023-04-08T02:39:59;5.90;99.90
9383;DHT22;4731;49.708;10.816;2023-04-08T02:42:26;4.10;99.90
9383;DHT22;4731;49.708;10.816;2023-04-08T02:44:53;4.10;99.90
9383;DHT22;4731;49.708;10.816;2023-04-08T02:47:20;4.10;99.90
9383;DHT22;4731;49.708;10.816;2023-04-08T02:49:46;4.10;99.90
9383;DHT22;4731;49.708;10.816;2023-04-08T02:52:18;4.10;99.90
9383;DHT22;4731;49.708;10.816;2023-04-08T02:54:45;4.10;99.90
9383;DHT22;4731;49.708;10.816;2023-04-08T02:57:12;6.10;99.90
9383;DHT22;4731;49.708;10.816;2023-04-08T02:59:38;4.10;99.90
9383;DHT22;4731;49.708;10.816;2023-04-08T03:02:05;4.20;99.90
9383;DHT22;4731;49.708;10.816;2023-04-08T03:04:32;4.20;99.90
9383;DHT22;4731;49.708;10.816;2023-04-08T03:06:58;4.20;99.90
9383;DHT22;4731;49.708;10.816;2023-04-08T03:09:26;4.20;99.90
9383;DHT22;4731;49.708;10.816;2023-04-08T03:11:53;4.20;99.90
9383;DHT22;4731;49.708;10.816;2023-04-08T03:14:20;4.30;99.90
9383;DHT22;4731;49.708;10.816;2023-04-08T03:16:47;4.20;99.90
9383;DHT22;4731;49.708;10.816;2023-04-08T03:19:13;4.30;99.90
9383;DHT22;4731;49.708;10.816;2023-04-08T03:21:40;4.30;99.90
9383;DHT22;4731;49.708;10.816;2023-04-08T03:24:07;4.30;99.90
9383;DHT22;4731;49.708;10.816;2023-04-08T03:26:35;4.30;99.90
9383;DHT22;4731;49.708;10.816;2023-04-08T03:29:02;4.30;99.90
9383;DHT22;4731;49.708;10.816;2023-04-08T03:31:28;4.40;99.90
9383;DHT22;4731;49.708;10.816;2023-04-08T03:33:55;4.30;99.90
9383;DHT22;4731;49.708;10.816;2023-04-08T03:36:22;4.40;99.90
9383;DHT22;4731;49.708;10.816;2023-04-08T03:38:48;4.30;99.90
9383;DHT22;4731;49.708;10.816;2023-04-08T03:41:15;4.30;99.90
9383;DHT22;4731;49.708;10.816;2023-04-08T03:43:43;4.30;99.90
9383;DHT22;4731;49.708;10.816;2023-04-08T03:46:10;4.30;99.90
9383;DHT22;4731;49.708;10.816;2023-04-08T03:48:37;4.30;99.90
9383;DHT22;4731;49.708;10.816;2023-04-08T03:51:04;4.30;99.90
9383;DHT22;4731;49.708;10.816;2023-04-08T03:53:30;4.30;99.90
9383;DHT22;4731;49.708;10.816;2023-04-08T03:55:57;4.20;99.90
9383;DHT22;4731;49.708;10.816;2023-04-08T03:58:24;4.20;99.90
9383;DHT22;4731;49.708;10.816;2023-04-08T04:00:53;4.20;99.90
9383;DHT22;4731;49.708;10.816;2023-04-08T04:03:19;4.10;99.90
9383;DHT22;4731;49.708;10.816;2023-04-08T04:05:46;4.10;99.90
9383;DHT22;4731;49.708;10.816;2023-04-08T04:08:12;4.00;99.90
9383;DHT22;4731;49.708;10.816;2023-04-08T04:10:39;4.00;99.90
9383;DHT22;4731;49.708;10.816;2023-04-08T04:13:06;4.00;99.90
9383;DHT22;4731;49.708;10.816;2023-04-08T04:15:33;4.00;99.90
9383;DHT22;4731;49.708;10.816;2023-04-08T04:18:04;4.00;99.90
9383;DHT22;4731;49.708;10.816;2023-04-08T04:20:31;3.90;99.90
9383;DHT22;4731;49.708;10.816;2023-04-08T04:22:57;4.00;99.90
9383;DHT22;4731;49.708;10.816;2023-04-08T04:25:24;3.90;99.90
9383;DHT22;4731;49.708;10.816;2023-04-08T04:27:51;3.90;99.90
9383;DHT22;4731;49.708;10.816;2023-04-08T04:30:17;4.00;99.90
9383;DHT22;4731;49.708;10.816;2023-04-08T04:32:45;4.00;99.90
9383;DHT22;4731;49.708;10.816;2023-04-08T04:35:13;4.00;99.90
9383;DHT22;4731;49.708;10.816;2023-04-08T04:37:39;4.10;99.90
9383;DHT22;4731;49.708;10.816;2023-04-08T04:40:07;4.20;99.90
9383;DHT22;4731;49.708;10.816;2023-04-08T04:42:33;4.30;99.90
9383;DHT22;4731;49.708;10.816;2023-04-08T04:45:00;4.30;99.90
9383;DHT22;4731;49.708;10.816;2023-04-08T04:47:27;4.40;99.90
9383;DHT22;4731;49.708;10.816;2023-04-08T04:49:53;4.50;99.90
9383;DHT22;4731;49.708;10.816;2023-04-08T04:52:22;4.60;99.90
9383;DHT22;4731;49.708;10.816;2023-04-08T04:54:48;4.60;99.90
9383;DHT22;4731;49.708;10.816;2023-04-08T04:57:15;4.70;99.90
9383;DHT22;4731;49.708;10.816;2023-04-08T04:59:42;4.70;99.90
9383;DHT22;4731;49.708;10.816;2023-04-08T05:02:08;4.70;99.90
9383;DHT22;4731;49.708;10.816;2023-04-08T05:04:35;4.70;99.90
9383;DHT22;4731;49.708;10.816;2023-04-08T05:07:02;4.80;99.90
9383;DHT22;4731;49.708;10.816;2023-04-08T05:09:30;4.80;99.90
9383;DHT22;4731;49.708;10.816;2023-04-08T05:11:57;4.80;99.90
9383;DHT22;4731;49.708;10.816;2023-04-08T05:14:23;4.80;99.90
9383;DHT22;4731;49.708;10.816;2023-04-08T05:16:50;4.90;99.90
9383;DHT22;4731;49.708;10.816;2023-04-08T05:19:17;4.90;99.90
9383;DHT22;4731;49.708;10.816;2023-04-08T05:21:44;4.90;99.90
9383;DHT22;4731;49.708;10.816;2023-04-08T05:24:10;5.00;99.90
9383;DHT22;4731;49.708;10.816;2023-04-08T05:26:38;5.10;99.90
9383;DHT22;4731;49.708;10.816;2023-04-08T05:29:05;5.00;99.90
9383;DHT22;4731;49.708;10.816;2023-04-08T05:31:32;5.00;99.90
9383;DHT22;4731;49.708;10.816;2023-04-08T05:33:58;5.00;99.90
9383;DHT22;4731;49.708;10.816;2023-04-08T05:36:25;5.10;99.90
9383;DHT22;4731;49.708;10.816;2023-04-08T05:38:53;5.10;99.90
9383;DHT22;4731;49.708;10.816;2023-04-08T05:41:20;5.20;99.90
9383;DHT22;4731;49.708;10.816;2023-04-08T05:43:48;5.10;99.90
9383;DHT22;4731;49.708;10.816;2023-04-08T05:46:14;5.10;99.90
9383;DHT22;4731;49.708;10.816;2023-04-08T05:48:41;5.20;99.90
9383;DHT22;4731;49.708;10.816;2023-04-08T05:51:12;5.20;99.90
9383;DHT22;4731;49.708;10.816;2023-04-08T05:53:39;5.20;99.90
9383;DHT22;4731;49.708;10.816;2023-04-08T05:56:06;5.20;99.90
9383;DHT22;4731;49.708;10.816;2023-04-08T05:58:33;5.20;99.90
9383;DHT22;4731;49.708;10.816;2023-04-08T06:01:01;5.30;99.90
9383;DHT22;4731;49.708;10.816;2023-04-08T06:03:29;5.30;99.90
9383;DHT22;4731;49.708;10.816;2023-04-08T06:05:57;5.30;99.90
9383;DHT22;4731;49.708;10.816;2023-04-08T06:08:23;5.30;99.90
9383;DHT22;4731;49.708;10.816;2023-04-08T06:10:50;5.30;99.90
9383;DHT22;4731;49.708;10.816;2023-04-08T06:13:17;5.30;99.90
9383;DHT22;4731;49.708;10.816;2023-04-08T06:15:45;5.30;99.90
9383;DHT22;4731;49.708;10.816;2023-04-08T06:18:14;5.40;99.90
9383;DHT22;4731;49.708;10.816;2023-04-08T06:20:41;5.40;99.90
9383;DHT22;4731;49.708;10.816;2023-04-08T06:23:08;5.40;99.90
9383;DHT22;4731;49.708;10.816;2023-04-08T06:25:35;5.40;99.90
9383;DHT22;4731;49.708;10.816;2023-04-08T06:28:01;5.40;99.90
9383;DHT22;4731;49.708;10.816;2023-04-08T06:30:28;5.30;99.90
9383;DHT22;4731;49.708;10.816;2023-04-08T06:32:55;5.30;99.90
9383;DHT22;4731;49.708;10.816;2023-04-08T06:35:23;5.30;99.90
9383;DHT22;4731;49.708;10.816;2023-04-08T06:37:50;5.40;99.90
9383;DHT22;4731;49.708;10.816;2023-04-08T06:40:16;5.40;99.90
9383;DHT22;4731;49.708;10.816;2023-04-08T06:42:43;5.40;99.90
9383;DHT22;4731;49.708;10.816;2023-04-08T06:45:10;5.30;99.90
9383;DHT22;4731;49.708;10.816;2023-04-08T06:47:37;5.40;99.90
9383;DHT22;4731;49.708;10.816;2023-04-08T06:50:04;5.40;99.90
9383;DHT22;4731;49.708;10.816;2023-04-08T06:52:33;5.50;99.90
9383;DHT22;4731;49.708;10.816;2023-04-08T06:54:59;5.50;99.90
9383;DHT22;4731;49.708;10.816;2023-04-08T06:57:26;5.40;99.90
9383;DHT22;4731;49.708;10.816;2023-04-08T06:59:53;5.50;99.90
9383;DHT22;4731;49.708;10.816;2023-04-08T07:02:20;5.40;99.90
9383;DHT22;4731;49.708;10.816;2023-04-08T07:04:47;5.40;99.90
9383;DHT22;4731;49.708;10.816;2023-04-08T07:07:14;5.30;99.90
9383;DHT22;4731;49.708;10.816;2023-04-08T07:09:42;5.30;99.90
9383;DHT22;4731;49.708;10.816;2023-04-08T07:12:10;5.40;99.90
9383;DHT22;4731;49.708;10.816;2023-04-08T07:14:37;5.50;99.90
9383;DHT22;4731;49.708;10.816;2023-04-08T07:17:03;5.50;99.90
9383;DHT22;4731;49.708;10.816;2023-04-08T07:19:30;5.60;99.90
9383;DHT22;4731;49.708;10.816;2023-04-08T07:21:57;5.70;99.90
9383;DHT22;4731;49.708;10.816;2023-04-08T07:24:23;5.70;99.90
9383;DHT22;4731;49.708;10.816;2023-04-08T07:26:52;5.70;99.90
9383;DHT22;4731;49.708;10.816;2023-04-08T07:29:20;5.80;99.90
9383;DHT22;4731;49.708;10.816;2023-04-08T07:31:47;5.70;99.90
9383;DHT22;4731;49.708;10.816;2023-04-08T07:34:14;5.80;99.90
9383;DHT22;4731;49.708;10.816;2023-04-08T07:36:41;5.90;99.90
9383;DHT22;4731;49.708;10.816;2023-04-08T07:39:07;5.90;99.90
9383;DHT22;4731;49.708;10.816;2023-04-08T07:41:34;5.80;99.90
9383;DHT22;4731;49.708;10.816;2023-04-08T07:44:02;5.70;99.90
9383;DHT22;4731;49.708;10.816;2023-04-08T07:46:28;5.30;99.90
9383;DHT22;4731;49.708;10.816;2023-04-08T07:48:56;5.80;99.90
9383;DHT22;4731;49.708;10.816;2023-04-08T07:51:22;5.80;99.90
9383;DHT22;4731;49.708;10.816;2023-04-08T07:53:49;5.70;99.90
9383;DHT22;4731;49.708;10.816;2023-04-08T07:56:16;5.70;99.90
9383;DHT22;4731;49.708;10.816;2023-04-08T07:58:43;5.80;99.90
9383;DHT22;4731;49.708;10.816;2023-04-08T08:01:17;5.70;99.90
9383;DHT22;4731;49.708;10.816;2023-04-08T08:03:45;5.70;99.90
9383;DHT22;4731;49.708;10.816;2023-04-08T08:06:12;5.70;99.90
9383;DHT22;4731;49.708;10.816;2023-04-08T08:08:39;5.90;99.90
9383;DHT22;4731;49.708;10.816;2023-04-08T08:11:05;5.90;99.90
9383;DHT22;4731;49.708;10.816;2023-04-08T08:13:32;5.90;99.90
9383;DHT22;4731;49.708;10.816;2023-04-08T08:15:59;6.80;99.90
9383;DHT22;4731;49.708;10.816;2023-04-08T08:18:27;7.20;99.90
9383;DHT22;4731;49.708;10.816;2023-04-08T08:20:54;6.20;99.90
9383;DHT22;4731;49.708;10.816;2023-04-08T08:23:21;6.20;99.90
9383;DHT22;4731;49.708;10.816;2023-04-08T08:25:47;6.30;99.90
9383;DHT22;4731;49.708;10.816;2023-04-08T08:28:14;6.40;99.90
9383;DHT22;4731;49.708;10.816;2023-04-08T08:30:41;6.70;99.90
9383;DHT22;4731;49.708;10.816;2023-04-08T08:33:08;6.80;99.90
9383;DHT22;4731;49.708;10.816;2023-04-08T08:35:36;7.00;99.90
9383;DHT22;4731;49.708;10.816;2023-04-08T08:38:02;7.10;99.90
9383;DHT22;4731;49.708;10.816;2023-04-08T08:40:31;7.20;99.90
9383;DHT22;4731;49.708;10.816;2023-04-08T08:42:59;8.70;99.90
9383;DHT22;4731;49.708;10.816;2023-04-08T08:45:26;7.30;99.90
9383;DHT22;4731;49.708;10.816;2023-04-08T08:47:53;7.20;99.90
9383;DHT22;4731;49.708;10.816;2023-04-08T08:50:22;7.10;99.90
9383;DHT22;4731;49.708;10.816;2023-04-08T08:52:51;7.10;99.90
9383;DHT22;4731;49.708;10.816;2023-04-08T08:55:18;6.90;99.90
9383;DHT22;4731;49.708;10.816;2023-04-08T08:57:45;7.70;99.90
9383;DHT22;4731;49.708;10.816;2023-04-08T09:00:16;6.70;99.90
9383;DHT22;4731;49.708;10.816;2023-04-08T09:02:43;6.70;99.90
9383;DHT22;4731;49.708;10.816;2023-04-08T09:05:10;6.50;99.90
9383;DHT22;4731;49.708;10.816;2023-04-08T09:07:37;6.50;99.90
9383;DHT22;4731;49.708;10.816;2023-04-08T09:10:07;6.50;99.90
9383;DHT22;4731;49.708;10.816;2023-04-08T09:12:35;6.60;99.90
9383;DHT22;4731;49.708;10.816;2023-04-08T09:15:18;6.60;99.90
9383;DHT22;4731;49.708;10.816;2023-04-08T09:17:45;6.60;99.90
9383;DHT22;4731;49.708;10.816;2023-04-08T09:20:12;6.60;99.90
9383;DHT22;4731;49.708;10.816;2023-04-08T09:22:59;6.80;99.90
9383;DHT22;4731;49.708;10.816;2023-04-08T09:25:28;6.80;99.90
9383;DHT22;4731;49.708;10.816;2023-04-08T09:27:56;6.80;99.90
9383;DHT22;4731;49.708;10.816;2023-04-08T09:30:24;8.40;99.90
9383;DHT22;4731;49.708;10.816;2023-04-08T09:32:53;7.00;99.90
9383;DHT22;4731;49.708;10.816;2023-04-08T09:35:20;7.20;99.90
9383;DHT22;4731;49.708;10.816;2023-04-08T09:37:47;7.40;99.90
9383;DHT22;4731;49.708;10.816;2023-04-08T09:40:15;7.30;99.90
9383;DHT22;4731;49.708;10.816;2023-04-08T09:42:45;7.40;99.90
9383;DHT22;4731;49.708;10.816;2023-04-08T09:45:15;7.40;99.90
9383;DHT22;4731;49.708;10.816;2023-04-08T09:47:51;7.30;99.90
9383;DHT22;4731;49.708;10.816;2023-04-08T09:50:23;7.30;99.90
9383;DHT22;4731;49.708;10.816;2023-04-08T09:52:52;7.20;99.90
9383;DHT22;4731;49.708;10.816;2023-04-08T09:55:27;7.30;99.90
9383;DHT22;4731;49.708;10.816;2023-04-08T09:58:00;7.40;99.90
9383;DHT22;4731;49.708;10.816;2023-04-08T10:00:31;10.20;99.90
9383;DHT22;4731;49.708;10.816;2023-04-08T10:03:03;7.60;99.90
9383;DHT22;4731;49.708;10.816;2023-04-08T10:05:34;7.70;99.90
9383;DHT22;4731;49.708;10.816;2023-04-08T10:08:02;7.80;99.90
9383;DHT22;4731;49.708;10.816;2023-04-08T10:10:30;8.00;99.90
9383;DHT22;4731;49.708;10.816;2023-04-08T10:12:59;8.20;99.90
9383;DHT22;4731;49.708;10.816;2023-04-08T10:15:28;8.30;99.90
9383;DHT22;4731;49.708;10.816;2023-04-08T10:17:56;8.50;99.90
9383;DHT22;4731;49.708;10.816;2023-04-08T10:20:45;8.70;99.90
9383;DHT22;4731;49.708;10.816;2023-04-08T10:23:13;9.00;99.90
9383;DHT22;4731;49.708;10.816;2023-04-08T10:25:40;9.00;99.90
9383;DHT22;4731;49.708;10.816;2023-04-08T10:28:26;9.30;99.90
9383;DHT22;4731;49.708;10.816;2023-04-08T10:30:54;9.40;99.90
9383;DHT22;4731;49.708;10.816;2023-04-08T10:33:23;9.30;99.90
9383;DHT22;4731;49.708;10.816;2023-04-08T10:35:53;9.50;99.90
9383;DHT22;4731;49.708;10.816;2023-04-08T10:38:21;9.70;99.90
9383;DHT22;4731;49.708;10.816;2023-04-08T10:40:48;9.90;99.90
9383;DHT22;4731;49.708;10.816;2023-04-08T10:43:16;10.00;99.90
9383;DHT22;4731;49.708;10.816;2023-04-08T10:45:44;7.70;99.90
9383;DHT22;4731;49.708;10.816;2023-04-08T10:48:16;9.90;99.90
9383;DHT22;4731;49.708;10.816;2023-04-08T10:50:44;9.90;99.90
9383;DHT22;4731;49.708;10.816;2023-04-08T10:53:11;9.80;99.90
9383;DHT22;4731;49.708;10.816;2023-04-08T10:55:37;9.90;99.90
9383;DHT22;4731;49.708;10.816;2023-04-08T10:58:05;9.70;99.90
9383;DHT22;4731;49.708;10.816;2023-04-08T11:00:33;9.60;99.90
9383;DHT22;4731;49.708;10.816;2023-04-08T11:03:05;9.60;99.90
9383;DHT22;4731;49.708;10.816;2023-04-08T11:05:32;9.70;99.90
9383;DHT22;4731;49.708;10.816;2023-04-08T11:07:59;9.60;99.90
9383;DHT22;4731;49.708;10.816;2023-04-08T11:10:27;9.70;99.90
9383;DHT22;4731;49.708;10.816;2023-04-08T11:12:55;9.70;99.90
9383;DHT22;4731;49.708;10.816;2023-04-08T11:15:23;9.90;99.90
9383;DHT22;4731;49.708;10.816;2023-04-08T11:17:50;9.90;99.90
9383;DHT22;4731;49.708;10.816;2023-04-08T11:20:20;9.80;99.90
9383;DHT22;4731;49.708;10.816;2023-04-08T11:22:49;9.90;99.90
9383;DHT22;4731;49.708;10.816;2023-04-08T11:25:18;10.00;99.90
9383;DHT22;4731;49.708;10.816;2023-04-08T11:27:46;10.00;99.90
9383;DHT22;4731;49.708;10.816;2023-04-08T11:30:16;9.80;99.90
9383;DHT22;4731;49.708;10.816;2023-04-08T11:32:43;9.70;99.90
9383;DHT22;4731;49.708;10.816;2023-04-08T11:35:10;9.70;99.90
9383;DHT22;4731;49.708;10.816;2023-04-08T11:37:39;9.60;99.90
9383;DHT22;4731;49.708;10.816;2023-04-08T11:40:07;10.00;99.90
9383;DHT22;4731;49.708;10.816;2023-04-08T11:42:34;10.70;99.90
9383;DHT22;4731;49.708;10.816;2023-04-08T11:45:09;11.30;99.90
9383;DHT22;4731;49.708;10.816;2023-04-08T11:47:37;11.90;99.90
9383;DHT22;4731;49.708;10.816;2023-04-08T11:50:04;12.20;99.90
9383;DHT22;4731;49.708;10.816;2023-04-08T11:52:43;12.30;99.90
9383;DHT22;4731;49.708;10.816;2023-04-08T11:55:11;12.40;99.90
9383;DHT22;4731;49.708;10.816;2023-04-08T11:57:38;12.30;99.90
9383;DHT22;4731;49.708;10.816;2023-04-08T12:00:08;12.40;99.90
9383;DHT22;4731;49.708;10.816;2023-04-08T12:02:35;12.70;99.90
9383;DHT22;4731;49.708;10.816;2023-04-08T12:05:02;12.70;99.90
9383;DHT22;4731;49.708;10.816;2023-04-08T12:07:29;12.90;99.90
9383;DHT22;4731;49.708;10.816;2023-04-08T12:09:57;12.90;99.90
9383;DHT22;4731;49.708;10.816;2023-04-08T12:12:24;12.80;99.90
9383;DHT22;4731;49.708;10.816;2023-04-08T12:14:51;12.40;99.90
9383;DHT22;4731;49.708;10.816;2023-04-08T12:17:17;12.40;99.90
9383;DHT22;4731;49.708;10.816;2023-04-08T12:19:45;12.10;99.90
9383;DHT22;4731;49.708;10.816;2023-04-08T12:22:11;12.20;99.90
9383;DHT22;4731;49.708;10.816;2023-04-08T12:24:38;12.40;99.90
9383;DHT22;4731;49.708;10.816;2023-04-08T12:27:06;12.50;99.90
9383;DHT22;4731;49.708;10.816;2023-04-08T12:29:33;12.10;99.90
9383;DHT22;4731;49.708;10.816;2023-04-08T12:32:00;13.50;99.90
9383;DHT22;4731;49.708;10.816;2023-04-08T12:34:29;11.10;99.90
9383;DHT22;4731;49.708;10.816;2023-04-08T12:36:55;10.90;99.90
9383;DHT22;4731;49.708;10.816;2023-04-08T12:39:23;10.60;99.90
9383;DHT22;4731;49.708;10.816;2023-04-08T12:41:50;10.30;99.90
9383;DHT22;4731;49.708;10.816;2023-04-08T12:44:18;10.20;99.90
9383;DHT22;4731;49.708;10.816;2023-04-08T12:46:45;9.90;99.90
9383;DHT22;4731;49.708;10.816;2023-04-08T12:49:12;9.80;99.90
9383;DHT22;4731;49.708;10.816;2023-04-08T12:51:38;9.80;99.90
9383;DHT22;4731;49.708;10.816;2023-04-08T12:54:05;9.70;99.90
9383;DHT22;4731;49.708;10.816;2023-04-08T12:56:34;9.70;99.90
9383;DHT22;4731;49.708;10.816;2023-04-08T12:59:01;9.60;99.90
9383;DHT22;4731;49.708;10.816;2023-04-08T13:01:29;9.50;99.90
9383;DHT22;4731;49.708;10.816;2023-04-08T13:03:55;9.40;99.90
9383;DHT22;4731;49.708;10.816;2023-04-08T13:06:22;10.70;99.90
9383;DHT22;4731;49.708;10.816;2023-04-08T13:08:49;9.30;99.90
9383;DHT22;4731;49.708;10.816;2023-04-08T13:11:16;9.40;99.90
9383;DHT22;4731;49.708;10.816;2023-04-08T13:13:42;9.50;99.90
9383;DHT22;4731;49.708;10.816;2023-04-08T13:16:10;9.50;99.90
9383;DHT22;4731;49.708;10.816;2023-04-08T13:18:40;9.60;99.90
9383;DHT22;4731;49.708;10.816;2023-04-08T13:21:07;9.80;99.90
9383;DHT22;4731;49.708;10.816;2023-04-08T13:23:34;9.80;99.90
9383;DHT22;4731;49.708;10.816;2023-04-08T13:26:01;9.80;99.90
9383;DHT22;4731;49.708;10.816;2023-04-08T13:28:28;9.70;99.90
9383;DHT22;4731;49.708;10.816;2023-04-08T13:30:54;9.80;99.90
9383;DHT22;4731;49.708;10.816;2023-04-08T13:33:21;9.90;99.90
9383;DHT22;4731;49.708;10.816;2023-04-08T13:35:50;10.10;99.90
9383;DHT22;4731;49.708;10.816;2023-04-08T13:38:16;10.30;99.90
9383;DHT22;4731;49.708;10.816;2023-04-08T13:40:43;10.70;99.90
9383;DHT22;4731;49.708;10.816;2023-04-08T13:43:10;11.40;99.90
9383;DHT22;4731;49.708;10.816;2023-04-08T13:45:37;14.50;99.90
9383;DHT22;4731;49.708;10.816;2023-04-08T13:48:05;13.40;99.90
9383;DHT22;4731;49.708;10.816;2023-04-08T13:50:31;13.90;99.90
9383;DHT22;4731;49.708;10.816;2023-04-08T13:53:00;15.00;99.90
9383;DHT22;4731;49.708;10.816;2023-04-08T13:55:27;13.30;99.90
9383;DHT22;4731;49.708;10.816;2023-04-08T13:57:54;12.80;99.90
9383;DHT22;4731;49.708;10.816;2023-04-08T14:00:21;12.50;99.90
9383;DHT22;4731;49.708;10.816;2023-04-08T14:02:50;13.90;99.90
9383;DHT22;4731;49.708;10.816;2023-04-08T14:05:18;11.30;99.90
9383;DHT22;4731;49.708;10.816;2023-04-08T14:07:44;11.00;99.90
9383;DHT22;4731;49.708;10.816;2023-04-08T14:10:13;13.40;99.90
9383;DHT22;4731;49.708;10.816;2023-04-08T14:12:40;10.80;99.90
9383;DHT22;4731;49.708;10.816;2023-04-08T14:15:08;10.70;99.90
9383;DHT22;4731;49.708;10.816;2023-04-08T14:17:35;10.60;99.90
9383;DHT22;4731;49.708;10.816;2023-04-08T14:20:03;10.60;99.90
9383;DHT22;4731;49.708;10.816;2023-04-08T14:22:30;10.70;99.90
9383;DHT22;4731;49.708;10.816;2023-04-08T14:24:57;10.70;99.90
9383;DHT22;4731;49.708;10.816;2023-04-08T14:27:25;10.80;99.90
9383;DHT22;4731;49.708;10.816;2023-04-08T14:29:52;10.90;99.90
9383;DHT22;4731;49.708;10.816;2023-04-08T14:32:19;11.00;99.90
9383;DHT22;4731;49.708;10.816;2023-04-08T14:34:46;11.20;99.90
9383;DHT22;4731;49.708;10.816;2023-04-08T14:37:13;11.30;99.90
9383;DHT22;4731;49.708;10.816;2023-04-08T14:39:42;11.20;99.90
9383;DHT22;4731;49.708;10.816;2023-04-08T14:42:09;11.10;99.90
9383;DHT22;4731;49.708;10.816;2023-04-08T14:44:37;11.10;99.90
9383;DHT22;4731;49.708;10.816;2023-04-08T14:47:04;12.40;99.90
9383;DHT22;4731;49.708;10.816;2023-04-08T14:49:31;11.10;99.90
9383;DHT22;4731;49.708;10.816;2023-04-08T14:51:58;13.00;99.90
9383;DHT22;4731;49.708;10.816;2023-04-08T14:54:25;11.20;99.90
9383;DHT22;4731;49.708;10.816;2023-04-08T14:56:51;11.10;99.90
9383;DHT22;4731;49.708;10.816;2023-04-08T14:59:20;12.80;99.90
9383;DHT22;4731;49.708;10.816;2023-04-08T15:01:48;10.90;99.90
9383;DHT22;4731;49.708;10.816;2023-04-08T15:04:15;10.90;99.90
9383;DHT22;4731;49.708;10.816;2023-04-08T15:06:42;10.80;99.90
9383;DHT22;4731;49.708;10.816;2023-04-08T15:09:08;10.80;99.90
9383;DHT22;4731;49.708;10.816;2023-04-08T15:11:35;10.80;99.90
9383;DHT22;4731;49.708;10.816;2023-04-08T15:14:02;10.70;99.90
9383;DHT22;4731;49.708;10.816;2023-04-08T15:16:29;12.90;99.90
9383;DHT22;4731;49.708;10.816;2023-04-08T15:18:57;10.50;99.90
9383;DHT22;4731;49.708;10.816;2023-04-08T15:21:24;10.60;99.90
9383;DHT22;4731;49.708;10.816;2023-04-08T15:23:51;10.80;99.90
9383;DHT22;4731;49.708;10.816;2023-04-08T15:26:18;11.10;99.90
9383;DHT22;4731;49.708;10.816;2023-04-08T15:28:45;11.10;99.90
9383;DHT22;4731;49.708;10.816;2023-04-08T15:31:12;13.20;99.90
9383;DHT22;4731;49.708;10.816;2023-04-08T15:33:39;11.10;99.90
9383;DHT22;4731;49.708;10.816;2023-04-08T15:36:08;13.30;99.90
9383;DHT22;4731;49.708;10.816;2023-04-08T15:38:35;11.90;99.90
9383;DHT22;4731;49.708;10.816;2023-04-08T15:41:02;11.90;99.90
9383;DHT22;4731;49.708;10.816;2023-04-08T15:43:29;11.80;99.90
9383;DHT22;4731;49.708;10.816;2023-04-08T15:45:56;11.70;99.90
9383;DHT22;4731;49.708;10.816;2023-04-08T15:48:27;11.30;99.90
9383;DHT22;4731;49.708;10.816;2023-04-08T15:50:54;11.20;99.90
9383;DHT22;4731;49.708;10.816;2023-04-08T15:53:22;11.00;99.90
9383;DHT22;4731;49.708;10.816;2023-04-08T15:55:48;10.90;99.90
9383;DHT22;4731;49.708;10.816;2023-04-08T15:58:15;13.10;99.90
9383;DHT22;4731;49.708;10.816;2023-04-08T16:00:42;10.70;99.90